Time;durP1;ratioP1;P1;durP2;ratioP2;P2;SDS_P1;SDS_P2;PMS_P1;PMS_P2;Temp;Humidity;BMP_temperature;BMP_pressure;BME280_temperature;BME280_humidity;BME280_pressure;Samples;Min_cycle;Max_cycle;Signal;HPM_P1;HPM_P2
2022/03/11 00:02:11;;;;;;;;;;;18.80;57.10;;;;;;5032819;28;1273;-70
2022/03/11 00:04:36;;;;;;;;;;;18.80;57.10;;;;;;5033777;28;1910;-70
2022/03/11 00:07:02;;;;;;;;;;;18.80;57.10;;;;;;5016207;28;800;-71
2022/03/11 00:09:27;;;;;;;;;;;18.70;57.00;;;;;;5015807;28;995;-70
2022/03/11 00:11:53;;;;;;;;;;;18.70;57.00;;;;;;5015903;28;1283;-71
2022/03/11 00:14:18;;;;;;;;;;;18.70;57.10;;;;;;5016019;28;987;-71
2022/03/11 00:16:43;;;;;;;;;;;18.70;57.10;;;;;;5033705;28;1412;-71
2022/03/11 00:19:09;;;;;;;;;;;18.70;57.10;;;;;;5033356;28;1493;-70
2022/03/11 00:21:34;;;;;;;;;;;18.70;57.10;;;;;;5033511;28;1193;-70
2022/03/11 00:24:00;;;;;;;;;;;18.70;57.10;;;;;;5015685;28;2391;-71
2022/03/11 00:26:25;;;;;;;;;;;18.70;57.10;;;;;;5015700;28;932;-71
2022/03/11 00:28:51;;;;;;;;;;;18.70;57.10;;;;;;5015718;28;847;-72
2022/03/11 00:31:16;;;;;;;;;;;18.70;57.10;;;;;;5015669;28;1279;-72
2022/03/11 00:33:42;;;;;;;;;;;18.70;57.20;;;;;;5033447;28;1065;-71
2022/03/11 00:36:07;;;;;;;;;;;18.70;57.20;;;;;;5033157;28;1428;-72
2022/03/11 00:38:33;;;;;;;;;;;18.70;57.20;;;;;;5033071;28;852;-71
2022/03/11 00:40:58;;;;;;;;;;;18.70;57.20;;;;;;5015579;28;1192;-72
2022/03/11 00:43:24;;;;;;;;;;;18.70;57.20;;;;;;4999148;28;1944;-71
2022/03/11 00:45:49;;;;;;;;;;;18.70;57.20;;;;;;5032862;28;938;-72
2022/03/11 00:48:15;;;;;;;;;;;18.60;57.20;;;;;;5015629;28;1077;-71
2022/03/11 00:50:40;;;;;;;;;;;18.70;57.30;;;;;;5032786;28;1193;-71
2022/03/11 00:53:06;;;;;;;;;;;18.60;57.20;;;;;;5033022;28;954;-71
2022/03/11 00:55:31;;;;;;;;;;;18.60;57.20;;;;;;5033112;28;878;-70
2022/03/11 00:57:56;;;;;;;;;;;18.60;57.20;;;;;;5033137;28;819;-70
2022/03/11 01:00:22;;;;;;;;;;;18.60;57.20;;;;;;5032657;28;1203;-70
2022/03/11 01:02:48;;;;;;;;;;;18.60;57.30;;;;;;5032916;28;819;-71
2022/03/11 01:05:13;;;;;;;;;;;18.60;57.20;;;;;;5016087;28;1968;-71
2022/03/11 01:07:38;;;;;;;;;;;18.60;57.30;;;;;;5051846;28;910;-71
2022/03/11 01:10:04;;;;;;;;;;;18.60;57.30;;;;;;5033934;28;1452;-72
2022/03/11 01:12:30;;;;;;;;;;;18.60;57.30;;;;;;5052231;28;827;-73
2022/03/11 01:14:55;;;;;;;;;;;18.60;57.30;;;;;;5034931;28;1017;-70
2022/03/11 01:17:21;;;;;;;;;;;18.60;57.30;;;;;;5034108;28;1475;-70
2022/03/11 01:19:46;;;;;;;;;;;18.60;57.30;;;;;;5032353;28;819;-70
2022/03/11 01:22:12;;;;;;;;;;;18.60;57.30;;;;;;5019049;28;1275;-70
2022/03/11 01:24:37;;;;;;;;;;;18.60;57.30;;;;;;5052535;28;1910;-70
2022/03/11 01:27:02;;;;;;;;;;;18.60;57.30;;;;;;5052553;28;978;-69
2022/03/11 01:29:28;;;;;;;;;;;18.60;57.30;;;;;;5034683;28;1142;-69
2022/03/11 01:31:53;;;;;;;;;;;18.60;57.40;;;;;;5052452;28;1193;-69
2022/03/11 01:34:19;;;;;;;;;;;18.60;57.40;;;;;;5053073;28;986;-70
2022/03/11 01:36:45;;;;;;;;;;;18.60;57.40;;;;;;5026407;28;1535;-71
2022/03/11 01:39:10;;;;;;;;;;;18.60;57.40;;;;;;5036412;28;867;-70
2022/03/11 01:41:35;;;;;;;;;;;18.60;57.40;;;;;;5018575;28;1326;-70
2022/03/11 01:44:01;;;;;;;;;;;18.60;57.40;;;;;;5036426;28;1894;-70
2022/03/11 01:46:28;;;;;;;;;;;18.60;57.40;;;;;;5036405;28;808;-70
2022/03/11 01:48:54;;;;;;;;;;;18.60;57.40;;;;;;5018915;28;909;-71
2022/03/11 01:51:19;;;;;;;;;;;18.60;57.40;;;;;;5035947;28;1267;-70
2022/03/11 01:53:45;;;;;;;;;;;18.50;57.40;;;;;;5036352;28;974;-70
2022/03/11 01:56:10;;;;;;;;;;;18.60;57.40;;;;;;5036292;28;836;-70
2022/03/11 01:58:36;;;;;;;;;;;18.50;57.40;;;;;;5001696;28;1145;-70
2022/03/11 02:01:02;;;;;;;;;;;18.50;57.40;;;;;;5017825;28;1271;-71
2022/03/11 02:03:28;;;;;;;;;;;18.50;57.40;;;;;;5002367;28;1962;-73
2022/03/11 02:05:53;;;;;;;;;;;18.50;57.40;;;;;;5036070;28;1076;-73
2022/03/11 02:08:19;;;;;;;;;;;18.50;57.40;;;;;;5036087;28;911;-73
2022/03/11 02:10:44;;;;;;;;;;;18.50;57.40;;;;;;5035703;28;1259;-73
2022/03/11 02:13:09;;;;;;;;;;;18.50;57.40;;;;;;5018350;28;1034;-73
2022/03/11 02:15:35;;;;;;;;;;;18.50;57.40;;;;;;5035817;28;1010;-71
2022/03/11 02:18:00;;;;;;;;;;;18.50;57.40;;;;;;5001381;28;1149;-75
2022/03/11 02:20:26;;;;;;;;;;;18.50;57.40;;;;;;5017688;28;1216;-74
2022/03/11 02:22:52;;;;;;;;;;;18.50;57.50;;;;;;5001565;28;1128;-74
2022/03/11 02:25:17;;;;;;;;;;;18.50;57.40;;;;;;5001547;28;1890;-74
2022/03/11 02:27:42;;;;;;;;;;;18.50;57.40;;;;;;5018174;28;1014;-74
2022/03/11 02:30:12;;;;;;;;;;;18.50;57.40;;;;;;5035604;28;1189;-74
2022/03/11 02:32:38;;;;;;;;;;;18.50;57.40;;;;;;5018319;28;868;-74
2022/03/11 02:35:03;;;;;;;;;;;18.50;57.40;;;;;;5017822;28;843;-74
2022/03/11 02:37:29;;;;;;;;;;;18.50;57.40;;;;;;5017849;28;1258;-74
2022/03/11 02:39:56;;;;;;;;;;;18.50;57.40;;;;;;5035495;28;1226;-74
2022/03/11 02:42:21;;;;;;;;;;;18.50;57.40;;;;;;5001627;28;1189;-75
2022/03/11 02:44:47;;;;;;;;;;;18.50;57.40;;;;;;5001003;28;1929;-74
2022/03/11 02:47:12;;;;;;;;;;;18.50;57.40;;;;;;5050496;28;1080;-74
2022/03/11 02:49:38;;;;;;;;;;;18.50;57.40;;;;;;5037286;28;1161;-71
2022/03/11 02:52:03;;;;;;;;;;;18.50;57.40;;;;;;5037119;28;1283;-71
2022/03/11 02:54:29;;;;;;;;;;;18.50;57.40;;;;;;5055212;28;1017;-70
2022/03/11 02:56:54;;;;;;;;;;;18.50;57.40;;;;;;5055084;28;864;-70
2022/03/11 02:59:20;;;;;;;;;;;18.50;57.50;;;;;;5054800;28;840;-71
2022/03/11 03:01:45;;;;;;;;;;;18.50;57.40;;;;;;5040390;28;1305;-72
2022/03/11 03:04:11;;;;;;;;;;;18.50;57.50;;;;;;5034964;28;1902;-72
2022/03/11 03:06:37;;;;;;;;;;;18.50;57.40;;;;;;5034949;28;874;-72
2022/03/11 03:09:02;;;;;;;;;;;18.50;57.40;;;;;;5034933;28;863;-72
2022/03/11 03:11:28;;;;;;;;;;;18.50;57.40;;;;;;5034709;28;1266;-72
2022/03/11 03:13:53;;;;;;;;;;;18.50;57.40;;;;;;5034950;28;1104;-72
2022/03/11 03:16:19;;;;;;;;;;;18.50;57.40;;;;;;5034736;28;1442;-72
2022/03/11 03:18:44;;;;;;;;;;;18.50;57.40;;;;;;5017003;28;1418;-72
2022/03/11 03:21:09;;;;;;;;;;;18.50;57.30;;;;;;5034988;28;1185;-74
2022/03/11 03:23:35;;;;;;;;;;;18.50;57.30;;;;;;5015909;28;1898;-74
2022/03/11 03:26:01;;;;;;;;;;;18.50;57.30;;;;;;5015925;28;1220;-72
2022/03/11 03:28:27;;;;;;;;;;;18.60;57.40;;;;;;5016601;28;875;-71
2022/03/11 03:30:52;;;;;;;;;;;18.50;57.30;;;;;;5016960;28;1222;-71
2022/03/11 03:33:18;;;;;;;;;;;18.50;57.30;;;;;;5034499;28;725;-73
2022/03/11 03:35:43;;;;;;;;;;;18.60;57.30;;;;;;5034115;28;1423;-72
2022/03/11 03:38:08;;;;;;;;;;;18.50;57.30;;;;;;5034600;28;859;-71
2022/03/11 03:40:34;;;;;;;;;;;18.60;57.30;;;;;;5033801;28;1287;-71
2022/03/11 03:42:59;;;;;;;;;;;18.50;57.20;;;;;;5034270;28;882;-71
2022/03/11 03:45:25;;;;;;;;;;;18.60;57.30;;;;;;5033740;28;1894;-71
2022/03/11 03:47:50;;;;;;;;;;;18.60;57.30;;;;;;5033669;28;1077;-72
2022/03/11 03:50:16;;;;;;;;;;;18.50;57.20;;;;;;5034103;28;1209;-72
2022/03/11 03:52:41;;;;;;;;;;;18.60;57.30;;;;;;5034235;28;823;-72
2022/03/11 03:55:07;;;;;;;;;;;18.60;57.20;;;;;;5016554;28;899;-72
2022/03/11 03:57:33;;;;;;;;;;;18.60;57.20;;;;;;5016189;28;786;-72
2022/03/11 03:59:58;;;;;;;;;;;18.60;57.10;;;;;;5016220;28;1190;-72
2022/03/11 04:02:23;;;;;;;;;;;18.60;57.00;;;;;;5033995;28;815;-72
2022/03/11 04:04:49;;;;;;;;;;;18.70;57.00;;;;;;5033689;28;1959;-72
2022/03/11 04:07:15;;;;;;;;;;;18.70;56.90;;;;;;5033799;28;803;-72
2022/03/11 04:09:41;;;;;;;;;;;18.70;56.80;;;;;;5016308;28;953;-71
2022/03/11 04:12:06;;;;;;;;;;;18.80;56.80;;;;;;5033772;28;1246;-71
2022/03/11 04:14:32;;;;;;;;;;;18.80;56.80;;;;;;5016194;28;1424;-71
2022/03/11 04:16:57;;;;;;;;;;;18.80;56.70;;;;;;5033637;28;1138;-72
2022/03/11 04:19:23;;;;;;;;;;;18.80;56.60;;;;;;5033321;28;891;-72
2022/03/11 04:21:48;;;;;;;;;;;18.80;56.50;;;;;;5033460;28;1183;-72
2022/03/11 04:24:14;;;;;;;;;;;18.90;56.50;;;;;;5033589;28;1894;-72
2022/03/11 04:26:40;;;;;;;;;;;18.90;56.40;;;;;;5016018;28;812;-72
2022/03/11 04:29:06;;;;;;;;;;;18.90;56.40;;;;;;5033506;28;1021;-72
2022/03/11 04:31:31;;;;;;;;;;;18.90;56.40;;;;;;5015810;28;1274;-72
2022/03/11 04:33:57;;;;;;;;;;;18.90;56.30;;;;;;5033292;28;899;-72
2022/03/11 04:36:22;;;;;;;;;;;18.90;56.90;;;;;;5033301;28;1092;-72
2022/03/11 04:38:48;;;;;;;;;;;18.90;56.20;;;;;;5033202;28;985;-72
2022/03/11 04:41:13;;;;;;;;;;;18.90;56.20;;;;;;5033222;28;1278;-72
2022/03/11 04:43:39;;;;;;;;;;;18.90;56.20;;;;;;5032017;28;1952;-72
2022/03/11 04:46:04;;;;;;;;;;;18.90;56.20;;;;;;5033433;28;618;-72
2022/03/11 04:48:31;;;;;;;;;;;18.90;56.20;;;;;;5032932;28;785;-72
2022/03/11 04:50:56;;;;;;;;;;;18.90;56.20;;;;;;5042894;22;3865;-67
2022/03/11 04:53:22;;;;;;;;;;;19.00;56.20;;;;;;5013323;28;1065;-67
2022/03/11 04:55:47;;;;;;;;;;;19.00;56.20;;;;;;5013442;28;998;-67
2022/03/11 04:58:12;;;;;;;;;;;19.00;56.20;;;;;;5013546;28;851;-67
2022/03/11 05:00:38;;;;;;;;;;;19.00;56.10;;;;;;5013016;28;1189;-67
2022/03/11 05:03:04;;;;;;;;;;;19.00;56.10;;;;;;4995713;28;848;-66
2022/03/11 05:05:29;;;;;;;;;;;19.00;56.10;;;;;;5013354;28;1977;-66
2022/03/11 05:07:55;;;;;;;;;;;19.00;56.10;;;;;;5013409;28;831;-67
2022/03/11 05:10:20;;;;;;;;;;;19.00;56.40;;;;;;5012244;28;1285;-67
2022/03/11 05:12:46;;;;;;;;;;;19.00;56.10;;;;;;4996494;28;828;-68
2022/03/11 05:15:11;;;;;;;;;;;19.00;56.10;;;;;;4996012;28;1096;-67
2022/03/11 05:17:37;;;;;;;;;;;18.90;56.10;;;;;;5013010;28;1105;-67
2022/03/11 05:20:03;;;;;;;;;;;19.00;56.10;;;;;;4995419;28;959;-67
2022/03/11 05:22:29;;;;;;;;;;;19.00;56.10;;;;;;5013069;28;1217;-67
2022/03/11 05:24:54;;;;;;;;;;;19.00;56.10;;;;;;4995624;28;1902;-66
2022/03/11 05:27:20;;;;;;;;;;;19.00;56.10;;;;;;5013041;28;711;-67
2022/03/11 05:29:45;;;;;;;;;;;19.00;56.10;;;;;;4983799;28;1829;-72
2022/03/11 05:32:13;;;;;;;;;;;19.00;56.10;;;;;;5006708;28;1366;-73
2022/03/11 05:34:39;;;;;;;;;;;19.00;56.10;;;;;;5012930;28;1277;-72
2022/03/11 05:37:05;;;;;;;;;;;19.00;56.10;;;;;;5013090;28;1095;-71
2022/03/11 05:39:31;;;;;;;;;;;18.90;56.10;;;;;;4995305;28;733;-68
2022/03/11 05:41:57;;;;;;;;;;;19.00;56.10;;;;;;4995379;28;1379;-70
2022/03/11 05:44:23;;;;;;;;;;;19.00;56.10;;;;;;5013077;28;1966;-69
2022/03/11 05:46:48;;;;;;;;;;;19.00;56.10;;;;;;5013185;28;804;-70
2022/03/11 05:49:14;;;;;;;;;;;19.00;56.10;;;;;;5012628;28;763;-68
2022/03/11 05:51:39;;;;;;;;;;;19.00;56.10;;;;;;5012568;28;1288;-70
2022/03/11 05:54:05;;;;;;;;;;;19.00;56.00;;;;;;5012896;28;1010;-71
2022/03/11 05:56:30;;;;;;;;;;;19.00;56.00;;;;;;5012813;28;772;-67
2022/03/11 05:58:56;;;;;;;;;;;19.00;56.00;;;;;;4995200;28;1060;-69
2022/03/11 06:01:21;;;;;;;;;;;19.00;56.00;;;;;;5012562;28;1260;-67
2022/03/11 06:03:47;;;;;;;;;;;19.00;56.00;;;;;;5013060;28;1963;-68
2022/03/11 06:06:13;;;;;;;;;;;19.00;56.00;;;;;;5012804;28;779;-68
2022/03/11 06:08:38;;;;;;;;;;;19.00;56.00;;;;;;5012551;28;889;-68
2022/03/11 06:11:04;;;;;;;;;;;19.00;56.00;;;;;;5012511;28;1210;-68
2022/03/11 06:13:29;;;;;;;;;;;19.00;56.00;;;;;;5012711;28;923;-67
2022/03/11 06:15:55;;;;;;;;;;;19.00;56.00;;;;;;5012414;28;1191;-67
2022/03/11 06:18:20;;;;;;;;;;;19.00;56.00;;;;;;5012573;28;1097;-68
2022/03/11 06:20:46;;;;;;;;;;;19.00;56.00;;;;;;5013460;28;1208;-68
2022/03/11 06:23:11;;;;;;;;;;;19.00;56.00;;;;;;5016235;28;914;-68
2022/03/11 06:25:36;;;;;;;;;;;19.00;56.00;;;;;;4998532;28;1970;-68
2022/03/11 06:28:02;;;;;;;;;;;19.00;56.00;;;;;;5016161;28;899;-68
2022/03/11 06:30:27;;;;;;;;;;;19.00;55.90;;;;;;5015554;28;1197;-68
2022/03/11 06:32:53;;;;;;;;;;;19.00;56.00;;;;;;5015961;28;873;-68
2022/03/11 06:35:18;;;;;;;;;;;19.00;55.90;;;;;;5015923;28;1131;-68
2022/03/11 06:37:45;;;;;;;;;;;19.00;55.90;;;;;;5010414;28;1420;-67
2022/03/11 06:40:10;;;;;;;;;;;19.00;56.00;;;;;;5007201;28;1125;-68
2022/03/11 06:42:36;;;;;;;;;;;19.00;55.90;;;;;;4996612;28;1645;-67
2022/03/11 06:45:01;;;;;;;;;;;19.00;55.90;;;;;;5014458;28;1945;-67
2022/03/11 06:47:27;;;;;;;;;;;19.00;55.90;;;;;;5014729;28;792;-67
2022/03/11 06:49:52;;;;;;;;;;;19.00;55.90;;;;;;5014506;28;761;-69
2022/03/11 06:52:18;;;;;;;;;;;19.00;55.90;;;;;;5014362;28;1294;-68
2022/03/11 06:54:43;;;;;;;;;;;19.00;55.90;;;;;;5014533;28;768;-68
2022/03/11 06:57:08;;;;;;;;;;;19.00;55.90;;;;;;5014585;28;760;-67
2022/03/11 06:59:34;;;;;;;;;;;19.00;56.00;;;;;;5014311;28;810;-67
2022/03/11 07:01:59;;;;;;;;;;;19.00;56.00;;;;;;4996694;28;1308;-67
2022/03/11 07:04:25;;;;;;;;;;;19.00;56.00;;;;;;5014202;28;1918;-68
2022/03/11 07:06:50;;;;;;;;;;;19.00;55.90;;;;;;5014522;28;938;-66
2022/03/11 07:09:16;;;;;;;;;;;19.00;55.90;;;;;;5014073;28;907;-66
2022/03/11 07:11:41;;;;;;;;;;;19.00;55.90;;;;;;5014251;28;1306;-64
2022/03/11 07:14:07;;;;;;;;;;;19.00;56.00;;;;;;5014432;28;842;-68
2022/03/11 07:16:32;;;;;;;;;;;19.00;55.90;;;;;;5011651;28;1739;-67
2022/03/11 07:18:57;;;;;;;;;;;19.00;55.90;;;;;;5012295;28;1367;-67
2022/03/11 07:21:23;;;;;;;;;;;19.00;55.90;;;;;;5013690;28;1197;-68
2022/03/11 07:23:54;;;;;;;;;;;19.00;55.90;;;;;;5013882;28;1906;-67
2022/03/11 07:26:19;;;;;;;;;;;19.00;55.90;;;;;;4995899;28;992;-68
2022/03/11 07:28:45;;;;;;;;;;;19.10;55.90;;;;;;5011333;28;1043;-68
2022/03/11 07:31:10;;;;;;;;;;;19.10;55.90;;;;;;5013304;28;1215;-67
2022/03/11 07:33:37;;;;;;;;;;;19.10;55.80;;;;;;5013036;28;903;-67
2022/03/11 07:36:03;;;;;;;;;;;19.10;55.80;;;;;;5013266;28;1360;-67
2022/03/11 07:38:30;;;;;;;;;;;19.10;55.80;;;;;;5013011;28;978;-67
2022/03/11 07:40:57;;;;;;;;;;;19.10;55.80;;;;;;5013777;28;1301;-68
2022/03/11 07:43:22;;;;;;;;;;;19.10;55.80;;;;;;4995848;28;867;-67
2022/03/11 07:45:48;;;;;;;;;;;19.10;55.80;;;;;;4995689;28;1954;-68
2022/03/11 07:48:14;;;;;;;;;;;19.10;55.80;;;;;;5013397;28;842;-69
2022/03/11 07:50:41;;;;;;;;;;;19.10;55.80;;;;;;5012242;28;1302;-68
2022/03/11 07:53:06;;;;;;;;;;;19.10;55.80;;;;;;5013334;28;776;-68
2022/03/11 07:55:32;;;;;;;;;;;19.10;56.40;;;;;;5013323;28;863;-69
2022/03/11 07:57:57;;;;;;;;;;;19.10;55.80;;;;;;4995441;28;1233;-68
2022/03/11 08:00:23;;;;;;;;;;;19.10;55.80;;;;;;5012443;28;1201;-68
2022/03/11 08:02:48;;;;;;;;;;;19.10;55.80;;;;;;4979962;28;1278;-67
2022/03/11 08:05:14;;;;;;;;;;;19.20;55.80;;;;;;4980352;28;1965;-68
2022/03/11 08:07:42;;;;;;;;;;;19.30;55.70;;;;;;5012588;28;942;-68
2022/03/11 08:10:08;;;;;;;;;;;19.40;55.50;;;;;;4996384;28;848;-67
2022/03/11 08:12:34;;;;;;;;;;;19.50;55.30;;;;;;5013863;28;1236;-68
2022/03/11 08:15:01;;;;;;;;;;;19.60;55.10;;;;;;4996495;28;883;-67
2022/03/11 08:17:26;;;;;;;;;;;19.80;54.90;;;;;;5013759;28;1191;-68
2022/03/11 08:19:51;;;;;;;;;;;19.90;54.60;;;;;;5013749;28;1122;-67
2022/03/11 08:22:17;;;;;;;;;;;20.00;54.30;;;;;;5013765;28;1196;-67
2022/03/11 08:24:42;;;;;;;;;;;20.20;54.10;;;;;;5013894;28;1887;-67
2022/03/11 08:27:08;;;;;;;;;;;20.30;53.80;;;;;;5013608;28;863;-67
2022/03/11 08:29:34;;;;;;;;;;;20.40;53.50;;;;;;5013521;28;855;-69
2022/03/11 08:31:59;;;;;;;;;;;20.50;53.30;;;;;;4996330;28;1196;-69
2022/03/11 08:34:25;;;;;;;;;;;20.50;53.10;;;;;;5013832;28;875;-69
2022/03/11 08:36:50;;;;;;;;;;;20.60;52.80;;;;;;5013941;28;1116;-69
2022/03/11 08:39:16;;;;;;;;;;;20.70;52.70;;;;;;5013536;28;803;-69
2022/03/11 08:41:42;;;;;;;;;;;20.80;52.60;;;;;;4995798;28;1394;-69
2022/03/11 08:44:07;;;;;;;;;;;20.80;52.40;;;;;;5012748;28;1907;-70
2022/03/11 08:46:33;;;;;;;;;;;20.90;52.30;;;;;;5013714;28;807;-69
2022/03/11 08:48:58;;;;;;;;;;;20.90;52.20;;;;;;4995876;28;919;-69
2022/03/11 08:51:24;;;;;;;;;;;20.90;52.20;;;;;;4995723;28;1206;-70
2022/03/11 08:53:51;;;;;;;;;;;20.90;52.20;;;;;;5013399;28;679;-70
2022/03/11 08:56:21;;;;;;;;;;;20.90;52.10;;;;;;4995900;28;1072;-70
2022/03/11 08:58:47;;;;;;;;;;;21.00;52.10;;;;;;5013452;28;839;-69
2022/03/11 09:01:13;;;;;;;;;;;21.00;52.20;;;;;;5013384;28;1209;-70
2022/03/11 09:03:38;;;;;;;;;;;21.00;52.20;;;;;;5013552;28;891;-69
2022/03/11 09:06:04;;;;;;;;;;;21.00;52.30;;;;;;5013340;28;1948;-68
2022/03/11 09:08:29;;;;;;;;;;;21.00;52.30;;;;;;5013055;28;768;-69
2022/03/11 09:10:55;;;;;;;;;;;21.00;52.40;;;;;;5013020;28;1190;-69
2022/03/11 09:13:20;;;;;;;;;;;21.00;52.30;;;;;;5013181;28;883;-69
2022/03/11 09:15:45;;;;;;;;;;;20.90;52.30;;;;;;5013262;28;1502;-69
2022/03/11 09:18:11;;;;;;;;;;;21.00;52.30;;;;;;5013121;28;1160;-69
2022/03/11 09:20:37;;;;;;;;;;;20.90;52.30;;;;;;5013159;28;1224;-69
2022/03/11 09:23:03;;;;;;;;;;;20.90;52.30;;;;;;5013268;28;770;-69
2022/03/11 09:25:28;;;;;;;;;;;20.90;52.30;;;;;;4995703;28;1902;-68
2022/03/11 09:27:54;;;;;;;;;;;20.90;52.40;;;;;;4995452;28;1018;-69
2022/03/11 09:30:19;;;;;;;;;;;20.90;52.40;;;;;;5013018;28;1185;-69
2022/03/11 09:32:45;;;;;;;;;;;20.90;52.40;;;;;;4996145;28;1355;-68
2022/03/11 09:35:11;;;;;;;;;;;20.80;52.50;;;;;;5013133;28;872;-69
2022/03/11 09:37:36;;;;;;;;;;;20.80;52.60;;;;;;5012944;28;1231;-69
2022/03/11 09:40:02;;;;;;;;;;;20.80;52.60;;;;;;4995076;28;861;-69
2022/03/11 09:42:28;;;;;;;;;;;20.80;52.60;;;;;;5010666;28;2144;-69
2022/03/11 09:44:54;;;;;;;;;;;20.70;52.60;;;;;;5010863;28;1894;-69
2022/03/11 09:47:19;;;;;;;;;;;20.70;52.70;;;;;;5012527;28;1185;-68
2022/03/11 09:49:45;;;;;;;;;;;20.70;52.80;;;;;;4995190;28;1228;-68
2022/03/11 09:52:10;;;;;;;;;;;20.70;52.90;;;;;;4991884;28;1346;-70
2022/03/11 09:54:36;;;;;;;;;;;20.60;52.90;;;;;;4991939;28;974;-70
2022/03/11 09:57:01;;;;;;;;;;;20.60;52.90;;;;;;4996452;28;1018;-70
2022/03/11 09:59:27;;;;;;;;;;;20.60;53.00;;;;;;5005853;28;959;-70
2022/03/11 10:01:53;;;;;;;;;;;20.60;53.10;;;;;;5015611;28;1306;-70
2022/03/11 10:04:19;;;;;;;;;;;20.50;53.10;;;;;;4999043;28;1871;-70
2022/03/11 10:06:45;;;;;;;;;;;20.50;53.20;;;;;;5016508;28;812;-70
2022/03/11 10:09:19;;;;;;;;;;;20.50;53.20;;;;;;5016024;28;781;-70
2022/03/11 10:11:46;;;;;;;;;;;20.50;53.30;;;;;;5016347;28;1185;-70
2022/03/11 10:14:11;;;;;;;;;;;20.50;53.30;;;;;;4998811;28;1536;-70
2022/03/11 10:16:37;;;;;;;;;;;20.40;53.40;;;;;;5016197;28;1092;-70
2022/03/11 10:19:06;;;;;;;;;;;20.40;53.40;;;;;;5015993;28;1231;-70
2022/03/11 10:21:35;;;;;;;;;;;20.40;53.50;;;;;;4998673;28;1278;-70
2022/03/11 10:24:02;;;;;;;;;;;20.40;53.50;;;;;;4998459;28;1902;-70
2022/03/11 10:26:33;;;;;;;;;;;20.40;53.60;;;;;;4998689;28;805;-70
2022/03/11 10:28:59;;;;;;;;;;;20.40;53.60;;;;;;5015808;28;795;-70
2022/03/11 10:31:34;;;;;;;;;;;20.30;53.60;;;;;;5015952;28;1204;-71
2022/03/11 10:34:19;;;;;;;;;;;20.30;53.60;;;;;;4998504;28;788;-70
2022/03/11 10:36:46;;;;;;;;;;;20.30;53.70;;;;;;5015812;28;1221;-70
2022/03/11 10:39:15;;;;;;;;;;;20.30;53.70;;;;;;4998166;28;835;-70
2022/03/11 10:41:41;;;;;;;;;;;20.30;53.80;;;;;;5015721;28;1294;-70
2022/03/11 10:44:09;;;;;;;;;;;20.20;53.80;;;;;;4998291;28;2021;-69
2022/03/11 10:46:34;;;;;;;;;;;20.20;54.30;;;;;;5015878;28;851;-68
2022/03/11 10:49:00;;;;;;;;;;;20.20;54.00;;;;;;4997859;28;819;-68
2022/03/11 10:51:26;;;;;;;;;;;20.20;53.70;;;;;;5042188;22;1782;-69
2022/03/11 10:53:51;;;;;;;;;;;20.20;53.80;;;;;;5031100;28;1116;-69
2022/03/11 10:56:29;;;;;;;;;;;20.10;53.80;;;;;;5008567;28;1120;-69
2022/03/11 10:58:55;;;;;;;;;;;20.10;54.10;;;;;;5033665;28;850;-69
2022/03/11 11:01:33;;;;;;;;;;;20.10;54.00;;;;;;5030696;28;1626;-69
2022/03/11 11:03:58;;;;;;;;;;;20.10;54.00;;;;;;4997832;28;1910;-69
2022/03/11 11:06:23;;;;;;;;;;;20.10;54.10;;;;;;4997583;28;906;-69
2022/03/11 11:08:49;;;;;;;;;;;20.10;54.10;;;;;;5014282;28;843;-70
2022/03/11 11:11:14;;;;;;;;;;;20.10;54.20;;;;;;4981480;28;1220;-69
2022/03/11 11:13:40;;;;;;;;;;;20.00;54.20;;;;;;4997533;28;939;-69
2022/03/11 11:16:05;;;;;;;;;;;20.00;54.20;;;;;;4997337;28;1168;-69
2022/03/11 11:18:31;;;;;;;;;;;20.00;54.20;;;;;;5007880;28;1180;-69
2022/03/11 11:20:56;;;;;;;;;;;20.00;54.30;;;;;;4997533;28;1209;-69
2022/03/11 11:23:21;;;;;;;;;;;20.00;54.30;;;;;;5013675;28;688;-69
2022/03/11 11:25:47;;;;;;;;;;;20.00;54.30;;;;;;5013452;28;1986;-69
2022/03/11 11:28:17;;;;;;;;;;;20.00;54.30;;;;;;5014839;28;903;-69
2022/03/11 11:30:43;;;;;;;;;;;20.00;54.30;;;;;;5013233;28;1037;-69
2022/03/11 11:33:08;;;;;;;;;;;20.00;54.30;;;;;;5013367;28;1271;-69
2022/03/11 11:35:34;;;;;;;;;;;20.00;54.30;;;;;;5014712;28;1155;-69
2022/03/11 11:38:01;;;;;;;;;;;20.00;54.20;;;;;;4996914;28;1177;-69
2022/03/11 11:40:32;;;;;;;;;;;20.10;54.30;;;;;;4996958;28;900;-69
2022/03/11 11:43:28;;;;;;;;;;;20.10;54.20;;;;;;4997101;28;1340;-69
2022/03/11 11:46:02;;;;;;;;;;;20.10;54.10;;;;;;5010934;28;2137;-69
2022/03/11 11:48:33;;;;;;;;;;;20.20;54.10;;;;;;5013086;28;1919;-69
2022/03/11 11:50:59;;;;;;;;;;;20.20;54.10;;;;;;5013005;28;1323;-69
2022/03/11 11:53:34;;;;;;;;;;;20.20;54.00;;;;;;4995014;28;1500;-69
2022/03/11 11:56:00;;;;;;;;;;;20.20;54.00;;;;;;5014565;28;879;-69
2022/03/11 11:58:25;;;;;;;;;;;20.20;53.90;;;;;;5013222;28;844;-69
2022/03/11 12:00:54;;;;;;;;;;;20.20;53.90;;;;;;5012923;28;1292;-69
2022/03/11 12:03:19;;;;;;;;;;;20.20;53.90;;;;;;5013045;28;917;-69
2022/03/11 12:05:45;;;;;;;;;;;20.20;53.80;;;;;;5013021;28;1914;-70
2022/03/11 12:08:31;;;;;;;;;;;20.20;53.90;;;;;;5012705;28;812;-70
2022/03/11 12:10:57;;;;;;;;;;;20.20;53.90;;;;;;5014071;28;1593;-69
2022/03/11 12:13:35;;;;;;;;;;;20.20;53.90;;;;;;5014010;28;931;-69
2022/03/11 12:16:01;;;;;;;;;;;20.20;53.90;;;;;;5009197;28;1115;-70
2022/03/11 12:18:36;;;;;;;;;;;20.20;53.90;;;;;;5012315;28;1184;-70
2022/03/11 12:21:01;;;;;;;;;;;20.20;53.90;;;;;;4980096;28;1279;-72
2022/03/11 12:23:30;;;;;;;;;;;20.20;53.90;;;;;;5013863;28;1073;-73
2022/03/11 12:26:00;;;;;;;;;;;20.20;54.00;;;;;;4996547;28;1891;-72
2022/03/11 12:28:32;;;;;;;;;;;20.20;54.00;;;;;;5013777;28;863;-72
2022/03/11 12:30:57;;;;;;;;;;;20.20;54.00;;;;;;5012369;28;1295;-72
2022/03/11 12:33:23;;;;;;;;;;;20.10;54.00;;;;;;5013748;28;1077;-73
2022/03/11 12:35:49;;;;;;;;;;;20.10;54.00;;;;;;5013764;28;1227;-74
2022/03/11 12:38:18;;;;;;;;;;;20.10;54.00;;;;;;4996198;28;780;-74
2022/03/11 12:40:44;;;;;;;;;;;20.10;54.10;;;;;;4996055;28;832;-73
2022/03/11 12:43:11;;;;;;;;;;;20.10;54.10;;;;;;5013561;28;1223;-73
2022/03/11 12:45:37;;;;;;;;;;;20.10;54.20;;;;;;4996090;28;1956;-74
2022/03/11 12:48:03;;;;;;;;;;;20.10;54.20;;;;;;4996015;28;811;-73
2022/03/11 12:50:29;;;;;;;;;;;20.10;54.20;;;;;;4995760;28;902;-73
2022/03/11 12:52:56;;;;;;;;;;;20.10;54.30;;;;;;4995880;28;1295;-73
2022/03/11 12:55:22;;;;;;;;;;;20.00;54.20;;;;;;4996084;28;827;-73
2022/03/11 12:57:50;;;;;;;;;;;20.00;54.20;;;;;;5013496;28;792;-73
2022/03/11 13:00:22;;;;;;;;;;;20.00;54.30;;;;;;5013093;28;737;-74
2022/03/11 13:02:49;;;;;;;;;;;20.00;54.30;;;;;;4979882;28;1203;-73
2022/03/11 13:05:24;;;;;;;;;;;20.00;54.40;;;;;;4996082;28;1899;-72
2022/03/11 13:07:50;;;;;;;;;;;20.00;54.40;;;;;;4995704;28;792;-73
2022/03/11 13:10:21;;;;;;;;;;;19.90;54.40;;;;;;5013131;28;828;-73
2022/03/11 13:12:47;;;;;;;;;;;19.90;54.40;;;;;;4995826;28;1192;-73
2022/03/11 13:15:16;;;;;;;;;;;19.90;54.40;;;;;;4995778;28;1131;-73
2022/03/11 13:17:45;;;;;;;;;;;19.90;54.50;;;;;;4995938;28;1148;-72
2022/03/11 13:20:29;;;;;;;;;;;19.90;54.50;;;;;;4995540;28;784;-72
2022/03/11 13:22:55;;;;;;;;;;;19.90;54.50;;;;;;5013408;28;1264;-72
2022/03/11 13:25:26;;;;;;;;;;;19.90;54.50;;;;;;5012973;28;1894;-73
2022/03/11 13:27:52;;;;;;;;;;;19.90;54.50;;;;;;4995582;28;805;-72
2022/03/11 13:30:36;;;;;;;;;;;19.90;54.60;;;;;;4995838;28;899;-73
2022/03/11 13:33:11;;;;;;;;;;;19.90;54.60;;;;;;5017061;28;1193;-72
2022/03/11 13:35:36;;;;;;;;;;;19.90;54.60;;;;;;5016830;28;1163;-73
2022/03/11 13:38:02;;;;;;;;;;;19.90;54.60;;;;;;5016946;28;914;-73
2022/03/11 13:40:27;;;;;;;;;;;19.80;54.60;;;;;;5016789;28;832;-73
2022/03/11 13:42:53;;;;;;;;;;;19.80;54.70;;;;;;5016877;28;1175;-73
2022/03/11 13:45:19;;;;;;;;;;;19.80;54.70;;;;;;5016985;28;2380;-73
2022/03/11 13:47:45;;;;;;;;;;;19.80;54.70;;;;;;4999354;28;1545;-71
2022/03/11 13:50:10;;;;;;;;;;;19.80;54.70;;;;;;4998641;28;1288;-71
2022/03/11 13:52:39;;;;;;;;;;;19.80;54.70;;;;;;5014713;28;1208;-71
2022/03/11 13:55:06;;;;;;;;;;;19.80;54.80;;;;;;4998764;28;770;-71
2022/03/11 13:57:34;;;;;;;;;;;19.80;54.70;;;;;;5015671;28;872;-72
2022/03/11 14:00:24;;;;;;;;;;;19.80;54.80;;;;;;5016375;28;622;-72
2022/03/11 14:02:49;;;;;;;;;;;19.80;54.80;;;;;;5016223;28;1318;-72
2022/03/11 14:05:21;;;;;;;;;;;19.70;54.80;;;;;;5016496;28;1906;-72
2022/03/11 14:07:47;;;;;;;;;;;19.70;54.80;;;;;;5016393;28;859;-72
2022/03/11 14:10:13;;;;;;;;;;;19.70;54.80;;;;;;4998968;28;820;-72
2022/03/11 14:12:39;;;;;;;;;;;19.70;54.80;;;;;;4998584;28;1244;-72
2022/03/11 14:15:08;;;;;;;;;;;19.70;54.80;;;;;;4998725;28;832;-72
2022/03/11 14:17:33;;;;;;;;;;;19.70;54.90;;;;;;5010114;28;1052;-72
2022/03/11 14:19:59;;;;;;;;;;;19.70;54.90;;;;;;4978902;28;890;-72
2022/03/11 14:22:24;;;;;;;;;;;19.70;54.90;;;;;;4978994;28;1252;-72
2022/03/11 14:24:50;;;;;;;;;;;19.70;54.90;;;;;;4996437;28;1890;-72
2022/03/11 14:27:15;;;;;;;;;;;19.60;54.90;;;;;;4978842;28;816;-72
2022/03/11 14:29:41;;;;;;;;;;;19.60;54.90;;;;;;4978697;28;872;-72
2022/03/11 14:32:06;;;;;;;;;;;19.60;54.90;;;;;;4996315;28;1196;-72